createdAt,value
2023-02-12T00:02:12.681Z,98.00
2023-02-12T00:07:14.283Z,97.28
2023-02-12T00:12:16.636Z,97.99
2023-02-12T00:17:18.084Z,96.77
2023-02-12T00:22:19.546Z,96.64
2023-02-12T00:27:21.771Z,96.54
2023-02-12T00:32:23.236Z,98.34
2023-02-12T00:37:24.781Z,97.83
2023-02-12T00:42:26.227Z,98.25
2023-02-12T00:47:27.647Z,98.04
2023-02-12T00:52:29.091Z,96.77
2023-02-12T00:57:30.563Z,97.03
2023-02-12T01:02:31.994Z,96.67
2023-02-12T01:07:33.569Z,97.87
2023-02-12T01:12:35.207Z,97.88
2023-02-12T01:17:37.405Z,98.76
2023-02-12T01:22:39.249Z,98.45
2023-02-12T01:27:41.031Z,98.63
2023-02-12T01:32:42.526Z,98.42
2023-02-12T01:37:43.934Z,98.05
2023-02-12T01:42:45.439Z,97.57
2023-02-12T01:47:46.891Z,98.26
2023-02-12T01:52:54.218Z,98.42
2023-02-12T01:57:55.987Z,98.96
2023-02-12T02:02:59.664Z,98.46
2023-02-12T02:08:01.148Z,98.38
2023-02-12T02:13:21.570Z,98.38
2023-02-12T02:18:32.197Z,97.21
2023-02-12T02:23:52.249Z,97.27
2023-02-12T02:28:53.610Z,98.49
2023-02-12T02:34:01.482Z,98.23
2023-02-12T02:39:17.228Z,98.65
2023-02-12T02:44:26.241Z,98.47
2023-02-12T02:49:33.857Z,98.30
2023-02-12T02:54:56.217Z,98.04
2023-02-12T03:00:23.293Z,98.87
2023-02-12T03:05:32.848Z,98.89
2023-02-12T03:10:42.553Z,97.98
2023-02-12T03:16:01.959Z,97.29
2023-02-12T03:21:06.077Z,97.04
2023-02-12T03:26:13.042Z,98.00
2023-02-12T03:31:46.406Z,96.88
2023-02-12T03:37:00.959Z,95.91
2023-02-12T03:42:18.460Z,96.78
2023-02-12T03:47:34.098Z,97.00
2023-02-12T03:52:36.001Z,96.22
2023-02-12T03:57:42.950Z,97.33
2023-02-12T04:02:45.115Z,97.03
2023-02-12T04:07:47.325Z,96.19
2023-02-12T04:13:06.459Z,96.59
2023-02-12T04:18:13.939Z,95.73
2023-02-12T04:23:48.387Z,95.25
2023-02-12T04:29:14.522Z,96.29
2023-02-12T04:34:36.892Z,96.53
2023-02-12T04:39:41.137Z,96.87
2023-02-12T04:44:43.860Z,95.82
2023-02-12T04:49:45.312Z,95.69
2023-02-12T04:54:46.761Z,94.79
2023-02-12T04:59:48.222Z,93.61
2023-02-12T05:04:50.792Z,95.57
2023-02-12T05:09:52.305Z,96.06
2023-02-12T05:14:53.766Z,95.19
2023-02-12T05:19:55.264Z,95.04
2023-02-12T05:24:56.691Z,94.90
2023-02-12T05:29:58.103Z,94.98
2023-02-12T05:34:59.547Z,95.09
2023-02-12T05:40:01.030Z,95.02
2023-02-12T05:45:02.522Z,94.91
2023-02-12T05:50:04.159Z,95.05
2023-02-12T05:55:06.062Z,94.61
2023-02-12T06:00:09.161Z,94.99
2023-02-12T06:05:10.600Z,94.23
2023-02-12T06:10:12.076Z,94.34
2023-02-12T06:15:13.572Z,95.13
2023-02-12T06:20:15.091Z,94.94
2023-02-12T06:25:16.638Z,94.54
2023-02-12T06:30:18.169Z,94.46
2023-02-12T06:35:19.597Z,93.87
2023-02-12T06:40:21.185Z,93.15
2023-02-12T06:45:22.846Z,93.81
2023-02-12T06:50:24.639Z,93.34
2023-02-12T06:55:26.091Z,92.94
2023-02-12T07:00:27.774Z,92.90
2023-02-12T07:05:29.289Z,92.66
2023-02-12T07:10:30.818Z,92.23
2023-02-12T07:15:32.375Z,92.02
2023-02-12T07:20:33.917Z,91.46
2023-02-12T07:25:35.335Z,91.25
2023-02-12T07:30:37.798Z,90.37
2023-02-12T07:35:39.242Z,90.77
2023-02-12T07:40:40.682Z,90.75
2023-02-12T07:45:42.116Z,90.05
2023-02-12T07:50:43.537Z,88.54
2023-02-12T07:55:44.936Z,89.00
2023-02-12T08:00:46.439Z,89.00
2023-02-12T08:05:47.862Z,89.02
2023-02-12T08:10:49.278Z,88.38
2023-02-12T08:15:50.708Z,88.07
2023-02-12T08:20:52.125Z,87.76
2023-02-12T08:25:53.735Z,88.04
2023-02-12T08:31:00.313Z,87.74
2023-02-12T08:36:14.629Z,87.80
2023-02-12T08:41:21.650Z,87.25
2023-02-12T08:46:26.251Z,87.22
2023-02-12T08:51:34.081Z,86.54
2023-02-12T08:56:36.086Z,86.86
2023-02-12T09:01:39.091Z,87.24
2023-02-12T09:06:40.671Z,87.21
2023-02-12T09:11:42.288Z,87.24
2023-02-12T09:16:44.781Z,86.81
2023-02-12T09:21:53.360Z,86.16
2023-02-12T09:26:56.612Z,83.92
2023-02-12T09:31:58.066Z,85.56
2023-02-12T09:36:59.507Z,84.45
2023-02-12T09:42:32.412Z,84.26
2023-02-12T09:47:43.535Z,84.20
2023-02-12T09:52:45.102Z,83.54
2023-02-12T09:57:47.080Z,83.97
2023-02-12T10:02:51.798Z,83.71
2023-02-12T10:08:24.854Z,83.44
2023-02-12T10:13:38.824Z,83.02
2023-02-12T10:18:40.203Z,81.31
2023-02-12T10:23:59.919Z,79.80
2023-02-12T10:29:22.029Z,81.04
2023-02-12T10:34:32.916Z,79.27
2023-02-12T10:39:48.795Z,79.96
2023-02-12T10:44:50.215Z,78.97
2023-02-12T10:49:59.124Z,79.55
2023-02-12T10:55:01.384Z,79.53
2023-02-12T11:00:23.074Z,78.36
2023-02-12T11:05:28.753Z,78.45
2023-02-12T11:10:38.125Z,78.55
2023-02-12T11:15:47.255Z,78.46
2023-02-12T11:20:56.003Z,76.23
2023-02-12T11:26:06.490Z,75.92
2023-02-12T11:31:23.035Z,72.57
2023-02-12T11:36:27.470Z,71.27
2023-02-12T11:41:38.173Z,70.58
2023-02-12T11:46:46.054Z,73.06
2023-02-12T11:51:48.682Z,72.33
2023-02-12T11:56:50.377Z,71.90
2023-02-12T12:01:55.206Z,68.62
2023-02-12T12:07:18.589Z,69.79
2023-02-12T12:12:37.660Z,69.82
2023-02-12T12:18:41.775Z,69.10
2023-02-12T12:23:55.507Z,69.74
2023-02-12T12:29:11.060Z,69.54
2023-02-12T12:34:27.680Z,70.74
2023-02-12T12:39:35.632Z,70.81
2023-02-12T12:45:14.973Z,71.57
2023-02-12T12:50:48.594Z,72.12
2023-02-12T12:56:04.966Z,69.50
2023-02-12T13:01:43.707Z,68.79
2023-02-12T13:07:08.772Z,68.11
2023-02-12T13:12:19.125Z,68.82
2023-02-12T13:17:31.756Z,68.51
2023-02-12T13:22:53.423Z,68.80
2023-02-12T13:27:56.299Z,67.88
2023-02-12T13:33:10.910Z,68.29
2023-02-12T13:38:23.110Z,67.69
2023-02-12T13:43:39.487Z,69.92
2023-02-12T13:48:55.444Z,68.80
2023-02-12T13:54:15.045Z,67.76
2023-02-12T13:59:32.049Z,67.13
2023-02-12T14:04:37.684Z,65.85
2023-02-12T14:09:45.279Z,66.12
2023-02-12T14:14:50.448Z,66.12
2023-02-12T14:19:51.788Z,66.32
2023-02-12T14:24:58.788Z,66.91
2023-02-12T14:30:09.057Z,66.01
2023-02-12T14:35:33.138Z,65.32
2023-02-12T14:40:34.491Z,67.09
2023-02-12T14:45:38.476Z,66.46
2023-02-12T14:50:52.057Z,67.81
2023-02-12T14:55:54.496Z,67.37
2023-02-12T15:00:57.949Z,67.77
2023-02-12T15:06:19.347Z,68.09
2023-02-12T15:11:41.014Z,68.70
2023-02-12T15:16:54.449Z,68.61
2023-02-12T15:21:56.882Z,68.60
2023-02-12T15:27:00.928Z,68.61
2023-02-12T15:32:06.668Z,68.75
2023-02-12T15:37:09.502Z,69.48
2023-02-12T15:42:24.102Z,69.55
2023-02-12T15:47:27.860Z,70.00
2023-02-12T15:52:37.875Z,70.30
2023-02-12T15:57:39.362Z,70.48
2023-02-12T16:02:40.804Z,70.44
2023-02-12T16:07:42.265Z,70.66
2023-02-12T16:12:44.586Z,71.22
2023-02-12T16:17:47.294Z,71.41
2023-02-12T16:22:50.513Z,71.44
2023-02-12T16:28:00.219Z,72.14
2023-02-12T16:33:02.098Z,72.96
2023-02-12T16:38:42.120Z,72.61
2023-02-12T16:43:47.289Z,73.36
2023-02-12T16:48:51.765Z,75.08
2023-02-12T16:53:57.856Z,74.18
2023-02-12T16:59:00.752Z,75.42
2023-02-12T17:04:06.639Z,75.38
2023-02-12T17:09:09.558Z,75.74
2023-02-12T17:14:16.266Z,75.78
2023-02-12T17:19:17.792Z,75.60
2023-02-12T17:24:25.299Z,75.86
2023-02-12T17:29:27.290Z,75.73
2023-02-12T17:34:32.042Z,75.45
2023-02-12T17:39:39.087Z,75.80
2023-02-12T17:44:41.568Z,75.89
2023-02-12T17:49:42.997Z,75.60
2023-02-12T17:54:45.685Z,75.45
2023-02-12T17:59:47.114Z,75.57
2023-02-12T18:04:48.531Z,75.41
2023-02-12T18:09:50.101Z,75.17
2023-02-12T18:14:55.366Z,75.09
2023-02-12T18:19:56.845Z,75.10
2023-02-12T18:24:58.347Z,75.16
2023-02-12T18:29:59.874Z,75.47
2023-02-12T18:35:01.295Z,75.53
2023-02-12T18:40:03.653Z,74.97
2023-02-12T18:45:05.698Z,74.89
2023-02-12T18:50:07.698Z,75.18
2023-02-12T18:55:09.219Z,75.46
2023-02-12T19:00:11.061Z,75.76
2023-02-12T19:05:12.538Z,75.47
2023-02-12T19:10:13.957Z,75.43
2023-02-12T19:15:17.413Z,75.60
2023-02-12T19:20:19.241Z,75.67
2023-02-12T19:25:20.693Z,74.79
2023-02-12T19:30:22.212Z,75.84
2023-02-12T19:35:23.668Z,76.25
2023-02-12T19:40:25.482Z,76.44
2023-02-12T19:45:26.896Z,76.13
2023-02-12T19:50:28.340Z,77.60
2023-02-12T19:55:29.763Z,77.36
2023-02-12T20:00:31.181Z,77.70
2023-02-12T20:05:32.608Z,77.95
2023-02-12T20:10:34.017Z,80.34
2023-02-12T20:15:39.572Z,81.03
2023-02-12T20:20:41.205Z,81.18
2023-02-12T20:25:44.357Z,81.51
2023-02-12T20:30:46.821Z,83.94
2023-02-12T20:35:55.811Z,84.02
2023-02-12T20:41:03.760Z,84.19
2023-02-12T20:46:13.914Z,86.38
2023-02-12T20:51:18.910Z,86.74
2023-02-12T20:56:23.810Z,86.90
2023-02-12T21:01:34.683Z,86.99
2023-02-12T21:06:39.383Z,86.53
2023-02-12T21:11:42.311Z,86.90
2023-02-12T21:16:44.518Z,86.79
2023-02-12T21:21:46.113Z,86.66
2023-02-12T21:26:48.226Z,87.46
2023-02-12T21:31:50.890Z,87.85
2023-02-12T21:36:54.789Z,89.32
2023-02-12T21:42:00.211Z,88.49
2023-02-12T21:47:01.932Z,88.48
2023-02-12T21:52:06.562Z,88.57
2023-02-12T21:57:08.078Z,88.66
2023-02-12T22:02:09.801Z,88.53
2023-02-12T22:07:11.275Z,88.76
2023-02-12T22:12:12.743Z,89.53
2023-02-12T22:17:14.192Z,89.01
2023-02-12T22:22:15.644Z,89.70
2023-02-12T22:27:17.139Z,89.72
2023-02-12T22:32:19.332Z,89.37
2023-02-12T22:37:21.175Z,89.37
2023-02-12T22:42:22.610Z,89.59
2023-02-12T22:47:24.499Z,89.27
2023-02-12T22:52:26.768Z,89.37
2023-02-12T22:57:28.233Z,89.24
2023-02-12T23:02:29.656Z,89.67
2023-02-12T23:07:31.097Z,89.35
2023-02-12T23:12:32.529Z,88.85
2023-02-12T23:17:34.049Z,89.07
2023-02-12T23:22:35.567Z,88.44
2023-02-12T23:27:36.979Z,88.50
2023-02-12T23:32:38.382Z,88.61
2023-02-12T23:37:39.838Z,88.63
2023-02-12T23:42:41.266Z,88.58
2023-02-12T23:47:42.689Z,88.48
2023-02-12T23:52:44.147Z,88.47
2023-02-12T23:57:47.097Z,88.52
